Time;durP1;ratioP1;P1;durP2;ratioP2;P2;SDS_P1;SDS_P2;PMS_P1;PMS_P2;Temp;Humidity;BMP_temperature;BMP_pressure;BME280_temperature;BME280_humidity;BME280_pressure;Samples;Min_cycle;Max_cycle;Signal;HPM_P1;HPM_P2
2023/06/02 00:00:00;;;;;;;4.60;4.20;;;24.90;38.30;;;;;;5033895;28;20547;-52
2023/06/02 00:02:29;;;;;;;5.53;4.13;;;24.90;38.60;;;;;;5033748;28;20240;-49
2023/06/02 00:04:59;;;;;;;5.23;3.87;;;24.80;38.70;;;;;;5033336;28;20470;-48
2023/06/02 00:07:27;;;;;;;4.33;3.93;;;24.70;38.70;;;;;;5051551;28;20952;-49
2023/06/02 00:09:52;;;;;;;5.37;3.83;;;24.60;38.70;;;;;;5042952;28;20469;-48
2023/06/02 00:12:18;;;;;;;4.40;3.80;;;24.60;38.90;;;;;;5031955;28;20813;-48
2023/06/02 00:14:44;;;;;;;8.67;4.10;;;24.60;39.10;;;;;;5033336;28;20640;-48
2023/06/02 00:17:10;;;;;;;4.50;4.20;;;24.50;39.10;;;;;;5033651;28;20272;-51
2023/06/02 00:19:42;;;;;;;3.90;3.60;;;24.50;39.70;;;;;;5033442;28;20586;-49
2023/06/02 00:22:09;;;;;;;5.10;4.13;;;24.40;40.20;;;;;;5033401;28;20431;-48
2023/06/02 00:24:35;;;;;;;5.00;4.00;;;24.30;40.10;;;;;;5033370;28;20432;-48
2023/06/02 00:27:00;;;;;;;5.27;4.47;;;24.20;40.10;;;;;;5033520;28;20790;-51
2023/06/02 00:29:26;;;;;;;6.30;4.00;;;24.10;40.30;;;;;;5033439;28;20751;-50
2023/06/02 00:31:52;;;;;;;4.63;4.23;;;24.00;40.20;;;;;;5033447;28;20573;-48
2023/06/02 00:34:17;;;;;;;4.80;4.37;;;24.00;40.20;;;;;;5032391;28;20195;-47
2023/06/02 00:36:43;;;;;;;4.83;4.33;;;23.90;40.20;;;;;;5032661;28;20193;-49
2023/06/02 00:39:08;;;;;;;4.80;4.23;;;23.80;40.00;;;;;;5031569;28;20303;-48
2023/06/02 00:41:34;;;;;;;5.20;4.67;;;23.70;40.70;;;;;;5033280;28;20204;-49
2023/06/02 00:44:00;;;;;;;5.60;4.20;;;23.60;41.10;;;;;;5032870;28;20280;-48
2023/06/02 00:46:25;;;;;;;6.00;4.43;;;23.60;41.40;;;;;;5033017;28;20239;-47
2023/06/02 00:48:51;;;;;;;4.50;4.10;;;23.50;41.20;;;;;;5033115;28;20276;-47
2023/06/02 00:51:18;;;;;;;5.13;3.90;;;23.40;41.00;;;;;;5032945;28;20197;-47
2023/06/02 00:53:44;;;;;;;9.87;4.30;;;23.40;41.30;;;;;;5037736;28;20472;-48
2023/06/02 00:56:16;;;;;;;4.73;4.23;;;23.30;41.30;;;;;;5047479;28;20436;-48
2023/06/02 00:58:45;;;;;;;5.60;4.50;;;23.30;41.20;;;;;;5033295;28;20519;-48
2023/06/02 01:01:18;;;;;;;4.83;3.90;;;23.20;40.50;;;;;;5032769;28;20923;-48
2023/06/02 01:03:46;;;;;;;5.77;4.30;;;23.20;40.70;;;;;;5032327;28;20440;-48
2023/06/02 01:06:15;;;;;;;6.07;4.20;;;23.10;41.60;;;;;;5038512;28;20514;-48
2023/06/02 01:08:43;;;;;;;6.43;4.67;;;23.10;42.00;;;;;;5051321;28;20530;-48
2023/06/02 01:11:11;;;;;;;5.10;4.60;;;23.00;42.10;;;;;;5032940;28;20921;-49
2023/06/02 01:13:37;;;;;;;5.60;3.90;;;23.00;41.70;;;;;;5032250;28;21190;-47
2023/06/02 01:16:03;;;;;;;5.53;4.40;;;23.00;41.60;;;;;;5032730;28;20428;-48
2023/06/02 01:18:31;;;;;;;5.77;4.00;;;23.00;41.70;;;;;;5032822;28;20255;-47
2023/06/02 01:21:01;;;;;;;5.70;4.30;;;23.00;41.90;;;;;;5032530;28;20420;-47
2023/06/02 01:23:35;;;;;;;4.80;3.93;;;22.90;42.30;;;;;;5032015;28;20429;-48
2023/06/02 01:26:01;;;;;;;5.27;4.77;;;22.80;42.00;;;;;;5032335;28;20435;-49
2023/06/02 01:28:27;;;;;;;5.33;4.20;;;22.80;42.10;;;;;;5032645;28;20412;-49
2023/06/02 01:31:39;;;;;;;4.83;4.23;;;22.70;42.10;;;;;;5032494;28;20189;-47
2023/06/02 01:34:10;;;;;;;6.07;4.23;;;22.70;42.10;;;;;;5037435;28;20208;-48
2023/06/02 01:36:38;;;;;;;4.60;4.20;;;22.70;42.10;;;;;;5052217;28;20451;-47
2023/06/02 01:39:07;;;;;;;5.00;4.60;;;22.60;42.90;;;;;;5052011;28;20482;-47
2023/06/02 01:41:35;;;;;;;5.30;4.10;;;22.60;42.30;;;;;;5051989;28;20434;-48
2023/06/02 01:44:02;;;;;;;5.77;4.23;;;22.60;42.10;;;;;;5051540;28;20789;-47
2023/06/02 01:46:28;;;;;;;4.93;4.00;;;22.60;41.80;;;;;;5051610;28;20782;-47
2023/06/02 01:48:55;;;;;;;6.13;4.40;;;22.50;41.00;;;;;;5052080;28;20442;-47
2023/06/02 01:51:20;;;;;;;5.13;4.63;;;22.50;40.80;;;;;;5051899;28;20435;-48
2023/06/02 01:53:46;;;;;;;4.80;4.30;;;22.50;40.60;;;;;;5028030;28;20797;-48
2023/06/02 01:56:12;;;;;;;5.33;4.53;;;22.50;41.10;;;;;;5031937;28;20565;-47
2023/06/02 01:58:37;;;;;;;5.73;4.27;;;22.40;42.20;;;;;;5030341;28;20231;-47
2023/06/02 02:01:03;;;;;;;5.47;4.23;;;22.40;42.80;;;;;;5030517;28;20201;-49
2023/06/02 02:03:32;;;;;;;5.00;4.30;;;22.30;43.00;;;;;;5031496;28;20268;-49
2023/06/02 02:05:58;;;;;;;4.40;4.00;;;22.30;42.80;;;;;;5033670;28;20634;-52
2023/06/02 02:08:24;;;;;;;6.57;5.13;;;22.20;42.60;;;;;;5039553;28;20432;-50
2023/06/02 02:10:50;;;;;;;5.93;5.00;;;22.20;42.00;;;;;;5031701;28;20922;-47
2023/06/02 02:13:15;;;;;;;5.90;4.70;;;22.10;41.50;;;;;;5031624;28;20200;-48
2023/06/02 02:15:41;;;;;;;6.17;4.80;;;22.10;41.40;;;;;;5031779;28;20193;-47
2023/06/02 02:18:07;;;;;;;5.33;4.57;;;22.10;41.40;;;;;;5031499;28;20219;-49
2023/06/02 02:20:32;;;;;;;5.70;5.13;;;22.00;41.10;;;;;;5031309;28;20630;-49
2023/06/02 02:22:58;;;;;;;5.43;4.93;;;22.00;41.20;;;;;;5031646;28;20276;-48
2023/06/02 02:25:24;;;;;;;5.97;5.00;;;22.00;41.40;;;;;;5029654;28;20672;-48
2023/06/02 02:27:49;;;;;;;4.37;3.97;;;22.00;42.00;;;;;;5031617;28;20263;-47
2023/06/02 02:30:15;;;;;;;5.07;4.40;;;21.90;42.70;;;;;;5031426;28;20197;-49
2023/06/02 02:32:44;;;;;;;6.07;3.90;;;21.90;43.00;;;;;;5031632;28;20652;-48
2023/06/02 02:35:10;;;;;;;6.10;5.00;;;21.90;43.50;;;;;;5030854;28;20208;-50
2023/06/02 02:37:36;;;;;;;4.83;3.80;;;21.80;43.90;;;;;;5031345;28;20460;-48
2023/06/02 02:40:03;;;;;;;5.90;5.20;;;21.80;43.90;;;;;;5031029;28;20845;-48
2023/06/02 02:42:29;;;;;;;5.00;4.60;;;21.80;44.00;;;;;;5031366;28;20216;-47
2023/06/02 02:44:54;;;;;;;7.07;4.90;;;21.70;44.10;;;;;;5029857;28;20903;-48
2023/06/02 02:47:20;;;;;;;5.03;4.60;;;21.80;44.10;;;;;;5031517;28;20204;-47
2023/06/02 02:49:46;;;;;;;5.67;5.03;;;21.70;43.50;;;;;;5031079;28;20201;-48
2023/06/02 02:52:12;;;;;;;5.83;5.23;;;21.60;43.30;;;;;;5029658;28;20280;-48
2023/06/02 02:54:38;;;;;;;7.00;4.87;;;21.60;43.40;;;;;;5043269;28;20679;-48
2023/06/02 02:57:07;;;;;;;8.33;5.33;;;21.50;43.50;;;;;;5038846;28;20428;-49
2023/06/02 02:59:33;;;;;;;7.10;5.33;;;21.50;43.60;;;;;;5033973;28;20495;-51
2023/06/02 03:01:59;;;;;;;4.97;4.57;;;21.50;43.70;;;;;;5035215;28;20797;-50
2023/06/02 03:04:25;;;;;;;6.53;5.00;;;21.40;43.80;;;;;;5034693;28;20440;-50
2023/06/02 03:06:53;;;;;;;5.33;4.83;;;21.30;43.80;;;;;;5037000;28;20684;-48
2023/06/02 03:09:19;;;;;;;9.60;4.90;;;21.30;43.80;;;;;;5035289;28;20482;-48
2023/06/02 03:11:45;;;;;;;11.43;5.40;;;21.30;43.80;;;;;;5035313;28;20435;-47
2023/06/02 03:14:11;;;;;;;7.50;5.10;;;21.30;43.80;;;;;;5034531;28;20451;-48
2023/06/02 03:16:44;;;;;;;6.47;4.70;;;21.20;44.10;;;;;;5034907;28;20247;-48
2023/06/02 03:19:13;;;;;;;5.30;4.80;;;21.20;44.10;;;;;;5033386;28;20578;-50
2023/06/02 03:21:42;;;;;;;6.13;5.07;;;21.20;44.10;;;;;;5035004;28;20430;-47
2023/06/02 03:24:14;;;;;;;5.87;5.10;;;21.10;44.10;;;;;;5034503;28;20424;-49
2023/06/02 03:26:41;;;;;;;6.07;5.43;;;21.10;44.00;;;;;;5034899;28;20494;-52
2023/06/02 03:29:07;;;;;;;6.67;4.80;;;21.10;43.90;;;;;;5034862;28;20485;-51
2023/06/02 03:31:33;;;;;;;6.07;5.40;;;21.10;43.70;;;;;;5034616;28;20440;-52
2023/06/02 03:33:58;;;;;;;8.50;5.93;;;21.00;43.50;;;;;;5034234;28;20930;-52
2023/06/02 03:36:25;;;;;;;5.70;5.13;;;21.10;43.60;;;;;;5034722;28;20194;-52
2023/06/02 03:38:51;;;;;;;5.53;4.83;;;21.00;43.90;;;;;;5034663;28;20642;-52
2023/06/02 03:41:16;;;;;;;4.87;4.30;;;21.00;44.00;;;;;;5034348;28;20460;-52
2023/06/02 03:43:42;;;;;;;6.70;5.70;;;21.00;44.00;;;;;;5032979;28;20665;-52
2023/06/02 03:46:07;;;;;;;7.30;5.57;;;21.00;44.10;;;;;;5034020;28;20228;-51
2023/06/02 03:48:33;;;;;;;6.00;5.13;;;21.00;44.10;;;;;;5034326;28;20213;-52
2023/06/02 03:50:59;;;;;;;7.00;5.67;;;20.90;44.10;;;;;;5034297;28;20201;-51
2023/06/02 03:53:24;;;;;;;6.80;5.03;;;20.90;44.10;;;;;;5036531;28;20193;-52
2023/06/02 03:55:50;;;;;;;5.80;5.20;;;20.90;44.10;;;;;;5052369;28;20619;-52
2023/06/02 03:58:15;;;;;;;7.20;5.60;;;20.80;44.30;;;;;;5034109;28;20213;-52
2023/06/02 04:00:42;;;;;;;7.97;5.40;;;20.80;44.40;;;;;;5033945;28;20201;-50
2023/06/02 04:03:09;;;;;;;9.53;5.40;;;20.80;44.40;;;;;;5033806;28;20246;-51
2023/06/02 04:05:35;;;;;;;6.07;5.43;;;20.80;44.40;;;;;;5036295;28;20468;-51
2023/06/02 04:08:00;;;;;;;7.83;5.50;;;20.80;44.40;;;;;;5053878;28;20484;-49
2023/06/02 04:10:30;;;;;;;6.90;5.73;;;20.70;44.60;;;;;;5036113;28;20193;-52
2023/06/02 04:12:58;;;;;;;9.87;6.43;;;20.70;44.80;;;;;;5034147;28;20280;-51
2023/06/02 04:15:24;;;;;;;6.53;5.90;;;20.70;44.90;;;;;;5033805;28;20420;-50
2023/06/02 04:17:50;;;;;;;7.80;5.77;;;20.70;45.10;;;;;;5034055;28;20417;-52
2023/06/02 04:20:15;;;;;;;6.40;5.80;;;20.70;45.20;;;;;;5033907;28;20221;-52
2023/06/02 04:22:41;;;;;;;7.20;5.93;;;20.70;45.20;;;;;;5033956;28;20185;-51
2023/06/02 04:25:07;;;;;;;7.27;6.10;;;20.70;45.30;;;;;;5033301;28;20561;-49
2023/06/02 04:27:32;;;;;;;8.60;5.70;;;20.70;45.30;;;;;;5033778;28;20788;-51
2023/06/02 04:29:58;;;;;;;8.47;6.33;;;20.60;45.40;;;;;;5033639;28;20197;-52
2023/06/02 04:32:24;;;;;;;6.27;5.43;;;20.60;45.60;;;;;;5033746;28;20193;-52
2023/06/02 04:34:50;;;;;;;6.70;6.00;;;20.70;45.60;;;;;;5033223;28;20201;-48
2023/06/02 04:37:16;;;;;;;8.50;6.07;;;20.70;45.70;;;;;;5031888;28;20510;-52
2023/06/02 04:39:46;;;;;;;6.37;5.73;;;20.70;45.90;;;;;;5033516;28;20835;-51
2023/06/02 04:42:13;;;;;;;7.90;6.27;;;20.70;45.90;;;;;;5033434;28;20197;-52
2023/06/02 04:44:39;;;;;;;5.97;5.33;;;20.70;45.90;;;;;;5033062;28;20467;-52
2023/06/02 04:47:05;;;;;;;6.30;5.40;;;20.70;46.00;;;;;;5033257;28;20416;-48
2023/06/02 04:49:31;;;;;;;7.63;6.57;;;20.70;46.10;;;;;;5032997;28;20424;-52
2023/06/02 04:51:57;;;;;;;7.27;6.10;;;20.70;46.20;;;;;;5033338;28;20955;-51
2023/06/02 04:54:23;;;;;;;7.27;6.57;;;20.60;46.30;;;;;;5043246;28;20193;-50
2023/06/02 04:56:48;;;;;;;8.93;6.50;;;20.60;46.50;;;;;;5043659;28;20431;-52
2023/06/02 04:59:14;;;;;;;7.20;6.10;;;20.70;46.80;;;;;;5032944;28;20231;-49
2023/06/02 05:01:40;;;;;;;7.87;6.63;;;20.70;46.80;;;;;;5033161;28;20190;-47
2023/06/02 05:04:06;;;;;;;7.03;6.33;;;20.70;47.00;;;;;;5031106;28;20424;-47
2023/06/02 05:06:31;;;;;;;7.33;6.60;;;20.80;47.10;;;;;;5043120;28;20236;-49
2023/06/02 05:08:57;;;;;;;7.23;6.50;;;20.80;47.30;;;;;;5049363;28;20189;-52
2023/06/02 05:11:23;;;;;;;7.00;6.40;;;20.80;47.40;;;;;;5033099;28;20268;-48
2023/06/02 05:13:48;;;;;;;5.97;5.37;;;20.80;47.70;;;;;;5032504;28;20189;-48
2023/06/02 05:16:14;;;;;;;7.27;6.57;;;20.80;47.70;;;;;;5032929;28;20595;-50
2023/06/02 05:18:40;;;;;;;8.03;7.23;;;20.80;48.00;;;;;;5032607;28;20312;-52
2023/06/02 05:21:06;;;;;;;7.87;7.17;;;20.90;48.00;;;;;;5030658;28;20230;-52
2023/06/02 05:23:31;;;;;;;10.03;6.90;;;21.00;48.00;;;;;;5032371;28;20448;-47
2023/06/02 05:25:57;;;;;;;9.77;6.27;;;21.00;48.00;;;;;;5032535;28;20201;-49
2023/06/02 05:28:23;;;;;;;7.23;6.13;;;21.10;48.20;;;;;;5032584;28;20196;-52
2023/06/02 05:30:48;;;;;;;8.03;6.10;;;21.10;48.20;;;;;;5030932;28;20220;-50
2023/06/02 05:33:14;;;;;;;7.30;6.50;;;21.20;48.40;;;;;;5040167;28;20200;-52
2023/06/02 05:35:39;;;;;;;9.40;6.27;;;21.20;48.30;;;;;;5043159;28;20284;-48
2023/06/02 05:38:05;;;;;;;7.60;6.80;;;21.10;48.50;;;;;;5032190;28;20211;-51
2023/06/02 05:40:31;;;;;;;8.70;6.37;;;21.10;48.20;;;;;;5032278;28;20197;-48
2023/06/02 05:42:56;;;;;;;7.97;6.30;;;21.10;48.10;;;;;;5031808;28;20229;-50
2023/06/02 05:45:22;;;;;;;8.17;6.70;;;21.30;48.20;;;;;;5032266;28;20671;-52
2023/06/02 05:47:50;;;;;;;7.57;6.80;;;21.30;49.00;;;;;;5032092;28;20304;-47
2023/06/02 05:50:16;;;;;;;9.57;6.93;;;21.30;48.50;;;;;;5032101;28;20193;-50
2023/06/02 05:52:41;;;;;;;7.83;7.10;;;21.40;48.50;;;;;;5031946;28;20953;-47
2023/06/02 05:55:07;;;;;;;8.20;6.53;;;21.40;48.40;;;;;;5048112;28;20189;-48
2023/06/02 05:57:33;;;;;;;7.20;6.50;;;21.50;48.40;;;;;;5034271;28;20722;-53
2023/06/02 05:59:58;;;;;;;8.13;7.40;;;21.50;48.40;;;;;;5032008;28;20700;-50
2023/06/02 06:02:24;;;;;;;9.67;6.80;;;21.50;48.30;;;;;;5032146;28;20205;-47
2023/06/02 06:04:49;;;;;;;8.70;6.77;;;21.50;48.30;;;;;;5031503;28;20233;-51
2023/06/02 06:07:15;;;;;;;9.93;6.60;;;21.70;48.40;;;;;;5048004;28;20246;-48
2023/06/02 06:09:41;;;;;;;11.30;6.80;;;21.80;48.20;;;;;;5042355;28;20189;-49
2023/06/02 06:12:07;;;;;;;15.03;7.20;;;21.90;48.40;;;;;;5031526;28;20223;-51
2023/06/02 06:14:32;;;;;;;10.80;7.70;;;22.00;48.20;;;;;;5031354;28;20200;-50
2023/06/02 06:16:58;;;;;;;8.37;7.57;;;22.00;47.50;;;;;;5031643;28;20427;-47
2023/06/02 06:19:24;;;;;;;9.57;7.43;;;22.00;47.70;;;;;;5031711;28;20228;-47
2023/06/02 06:21:49;;;;;;;9.43;7.30;;;22.10;47.90;;;;;;5031600;28;20189;-47
2023/06/02 06:24:15;;;;;;;7.23;6.53;;;22.20;47.90;;;;;;5029743;28;20193;-50
2023/06/02 06:26:41;;;;;;;7.13;6.53;;;22.20;48.20;;;;;;5031425;28;20223;-52
2023/06/02 06:29:07;;;;;;;7.70;7.00;;;22.40;48.50;;;;;;5031317;28;20204;-48
2023/06/02 06:31:32;;;;;;;12.67;6.50;;;22.40;47.70;;;;;;5031134;28;20919;-47
2023/06/02 06:33:59;;;;;;;7.20;6.23;;;22.50;47.90;;;;;;5030804;28;20252;-48
2023/06/02 06:36:24;;;;;;;8.37;7.50;;;22.60;47.70;;;;;;5031257;28;20198;-48
2023/06/02 06:38:50;;;;;;;7.97;7.17;;;22.60;47.10;;;;;;5031378;28;20482;-48
2023/06/02 06:41:17;;;;;;;7.27;6.17;;;22.50;47.50;;;;;;5031255;28;20196;-48
2023/06/02 06:43:43;;;;;;;8.50;6.90;;;22.60;48.20;;;;;;5030807;28;20193;-51
2023/06/02 06:46:08;;;;;;;7.27;6.40;;;22.80;47.50;;;;;;5031083;28;20820;-47
2023/06/02 06:48:34;;;;;;;11.10;7.43;;;22.90;47.60;;;;;;5031037;28;20208;-49
2023/06/02 06:50:59;;;;;;;8.43;7.23;;;23.00;46.80;;;;;;5029606;28;20185;-50
2023/06/02 06:53:26;;;;;;;9.10;7.00;;;23.00;47.10;;;;;;5033207;28;20193;-51
2023/06/02 06:55:52;;;;;;;7.43;6.23;;;23.10;47.70;;;;;;5049802;28;20262;-48
2023/06/02 06:58:18;;;;;;;9.27;6.30;;;23.40;47.10;;;;;;5030981;28;20971;-47
2023/06/02 07:00:43;;;;;;;7.80;7.00;;;23.50;46.10;;;;;;5030965;28;20200;-51
2023/06/02 07:03:09;;;;;;;7.77;7.00;;;23.70;45.70;;;;;;5030484;28;20185;-50
2023/06/02 07:05:35;;;;;;;8.33;6.30;;;23.70;45.60;;;;;;5033185;28;20229;-49
2023/06/02 07:08:02;;;;;;;9.00;6.50;;;23.80;45.50;;;;;;5050682;28;20204;-49
2023/06/02 07:10:27;;;;;;;9.67;7.50;;;23.90;46.40;;;;;;5034852;28;20447;-48
2023/06/02 07:12:53;;;;;;;11.83;7.00;;;24.00;45.10;;;;;;5030594;28;20958;-50
2023/06/02 07:15:18;;;;;;;9.23;7.60;;;24.20;44.90;;;;;;5030886;28;20193;-48
2023/06/02 07:17:44;;;;;;;9.13;6.63;;;24.30;45.00;;;;;;5029874;28;20199;-48
2023/06/02 07:20:11;;;;;;;9.43;6.83;;;24.30;45.40;;;;;;5030695;28;20236;-48
2023/06/02 07:22:37;;;;;;;8.73;7.00;;;24.50;45.00;;;;;;5030874;28;20193;-49
2023/06/02 07:25:06;;;;;;;9.63;7.27;;;24.60;44.20;;;;;;5030416;28;20497;-47
2023/06/02 07:27:32;;;;;;;7.67;6.63;;;24.80;44.10;;;;;;5030638;28;20673;-48
2023/06/02 07:29:59;;;;;;;8.13;7.33;;;24.80;43.90;;;;;;5030735;28;20841;-48
2023/06/02 07:32:25;;;;;;;6.40;5.80;;;25.00;43.90;;;;;;5030871;28;20515;-49
2023/06/02 07:34:50;;;;;;;7.50;6.70;;;25.00;45.00;;;;;;5030555;28;20432;-48
2023/06/02 07:37:16;;;;;;;7.47;6.73;;;25.20;44.20;;;;;;5030640;28;20420;-49
2023/06/02 07:39:42;;;;;;;7.07;6.47;;;25.20;43.70;;;;;;5030823;28;20663;-48
2023/06/02 07:42:07;;;;;;;7.73;7.03;;;25.30;43.20;;;;;;5029037;28;20195;-48
2023/06/02 07:44:33;;;;;;;7.27;6.57;;;25.40;42.90;;;;;;5031568;28;20262;-48
2023/06/02 07:46:59;;;;;;;8.47;7.60;;;25.30;43.30;;;;;;5034393;28;20275;-48
2023/06/02 07:49:24;;;;;;;9.73;7.00;;;25.40;42.60;;;;;;5034289;28;20660;-51
2023/06/02 07:51:50;;;;;;;9.53;7.53;;;25.40;43.40;;;;;;5034192;28;20271;-48
2023/06/02 07:54:16;;;;;;;9.50;7.00;;;25.40;43.40;;;;;;5043268;28;20216;-48
2023/06/02 07:56:42;;;;;;;7.07;6.37;;;25.60;43.40;;;;;;5044423;28;20267;-47
2023/06/02 07:59:11;;;;;;;8.57;7.60;;;25.40;42.70;;;;;;5033807;28;20272;-48
2023/06/02 08:01:38;;;;;;;7.33;6.63;;;25.40;42.70;;;;;;5033904;28;20202;-48
2023/06/02 08:04:03;;;;;;;8.27;7.47;;;25.30;42.80;;;;;;5033403;28;20428;-49
2023/06/02 08:06:29;;;;;;;9.47;7.33;;;25.40;43.10;;;;;;5035677;28;20824;-49
2023/06/02 08:08:55;;;;;;;8.60;7.80;;;25.50;43.30;;;;;;5035660;28;20604;-48
2023/06/02 08:11:22;;;;;;;8.30;7.60;;;25.60;42.30;;;;;;5034182;28;20197;-48
2023/06/02 08:13:48;;;;;;;9.47;7.50;;;25.80;42.00;;;;;;5033525;28;20243;-48
2023/06/02 08:16:14;;;;;;;8.63;7.67;;;25.90;42.10;;;;;;5033919;28;20970;-47
2023/06/02 08:18:39;;;;;;;8.07;7.37;;;25.90;41.80;;;;;;5033776;28;20213;-48
2023/06/02 08:21:05;;;;;;;8.10;7.10;;;26.00;41.40;;;;;;5033737;28;20270;-49
2023/06/02 08:23:32;;;;;;;8.23;7.37;;;25.90;41.40;;;;;;5033301;28;20217;-48
2023/06/02 08:25:58;;;;;;;9.57;8.43;;;25.90;41.50;;;;;;5033745;28;20288;-48
2023/06/02 08:28:25;;;;;;;8.63;7.80;;;26.00;41.50;;;;;;5033673;28;20498;-48
2023/06/02 08:30:51;;;;;;;6.97;6.33;;;26.10;41.30;;;;;;5033612;28;20955;-48
2023/06/02 08:33:18;;;;;;;7.93;6.80;;;26.10;41.30;;;;;;5033162;28;20474;-51
2023/06/02 08:35:46;;;;;;;7.77;7.07;;;26.10;42.50;;;;;;5031972;28;20892;-48
2023/06/02 08:38:16;;;;;;;7.70;7.00;;;26.10;41.70;;;;;;5033223;28;20774;-49
2023/06/02 08:40:42;;;;;;;7.13;6.53;;;26.40;41.10;;;;;;5033372;28;20936;-48
2023/06/02 08:43:13;;;;;;;8.03;7.33;;;26.50;40.90;;;;;;5032783;28;20432;-48
2023/06/02 08:45:40;;;;;;;7.50;6.80;;;26.50;40.60;;;;;;5033409;28;20225;-48
2023/06/02 08:48:07;;;;;;;8.83;6.67;;;26.50;40.20;;;;;;5033160;28;20436;-49
2023/06/02 08:50:35;;;;;;;8.10;7.30;;;26.60;41.20;;;;;;5033220;28;20428;-48
2023/06/02 08:53:06;;;;;;;6.97;6.27;;;26.70;40.00;;;;;;5032915;28;20478;-48
2023/06/02 08:55:35;;;;;;;7.70;7.00;;;26.70;40.50;;;;;;5052093;28;20431;-49
2023/06/02 08:58:01;;;;;;;7.53;6.77;;;26.80;40.10;;;;;;5032761;28;20439;-48
2023/06/02 09:00:27;;;;;;;7.60;6.90;;;27.00;40.00;;;;;;5032979;28;20444;-48
2023/06/02 09:02:53;;;;;;;7.40;6.70;;;27.30;39.70;;;;;;5031022;28;20942;-49
2023/06/02 09:05:19;;;;;;;7.57;6.83;;;27.50;39.80;;;;;;5032944;28;20994;-48
2023/06/02 09:07:48;;;;;;;6.60;5.80;;;27.70;39.20;;;;;;5052848;28;20459;-48
2023/06/02 09:10:30;;;;;;;8.67;6.67;;;27.90;39.70;;;;;;5038936;28;20201;-48
2023/06/02 09:12:56;;;;;;;8.63;6.60;;;28.10;38.50;;;;;;5032527;28;20450;-49
2023/06/02 09:15:24;;;;;;;7.30;6.60;;;28.20;37.80;;;;;;5032679;28;20826;-48
2023/06/02 09:17:50;;;;;;;7.00;6.30;;;28.30;37.90;;;;;;5032849;28;20217;-48
2023/06/02 09:20:15;;;;;;;14.07;7.37;;;28.40;36.60;;;;;;5032439;28;20522;-48
2023/06/02 09:22:55;;;;;;;6.97;6.30;;;28.40;36.90;;;;;;5032287;28;20200;-49
2023/06/02 09:25:23;;;;;;;8.40;6.83;;;28.60;37.30;;;;;;5032826;28;20193;-48
2023/06/02 09:27:54;;;;;;;7.63;6.23;;;28.60;37.00;;;;;;5031804;28;20466;-50
2023/06/02 09:30:20;;;;;;;6.30;5.70;;;28.60;37.10;;;;;;5032551;28;20583;-48
2023/06/02 09:32:56;;;;;;;7.00;6.30;;;28.70;37.00;;;;;;5032266;28;20431;-52
2023/06/02 09:35:40;;;;;;;7.53;6.70;;;28.80;37.40;;;;;;5039504;28;20441;-48
2023/06/02 09:38:15;;;;;;;6.73;6.13;;;29.00;37.10;;;;;;5051961;28;20522;-48
2023/06/02 09:40:42;;;;;;;8.17;6.43;;;29.20;36.50;;;;;;5052174;28;20433;-48
2023/06/02 09:43:10;;;;;;;6.93;6.43;;;29.30;36.80;;;;;;5051746;28;20458;-49
2023/06/02 09:45:48;;;;;;;6.40;5.80;;;29.50;36.90;;;;;;5051885;28;20430;-48
2023/06/02 09:48:22;;;;;;;7.77;6.97;;;29.60;37.10;;;;;;5051921;28;20433;-50
2023/06/02 09:50:48;;;;;;;7.23;6.43;;;29.80;35.50;;;;;;5051794;28;20801;-51
2023/06/02 09:53:17;;;;;;;7.10;6.20;;;29.80;35.40;;;;;;5050666;28;20439;-49
2023/06/02 09:55:44;;;;;;;8.80;6.17;;;29.80;35.10;;;;;;5030313;28;20489;-49
2023/06/02 09:58:10;;;;;;;6.70;5.90;;;30.00;35.50;;;;;;5031982;28;20803;-48
2023/06/02 10:00:35;;;;;;;6.80;6.17;;;30.10;36.00;;;;;;5031909;28;20432;-49
2023/06/02 10:03:02;;;;;;;6.20;5.70;;;30.20;35.10;;;;;;5031394;28;20720;-48
2023/06/02 10:05:28;;;;;;;6.47;6.07;;;30.20;36.30;;;;;;5032875;28;20241;-49
2023/06/02 10:08:15;;;;;;;6.43;5.87;;;30.30;35.40;;;;;;5051439;28;20424;-50
2023/06/02 10:10:55;;;;;;;7.13;6.50;;;30.50;35.80;;;;;;5034062;28;20436;-48
2023/06/02 10:13:26;;;;;;;6.83;6.20;;;30.60;33.90;;;;;;5031512;28;20467;-48
2023/06/02 10:16:05;;;;;;;6.60;5.93;;;30.80;35.20;;;;;;5038318;28;20541;-48
2023/06/02 10:19:08;;;;;;;6.57;6.00;;;31.00;35.00;;;;;;5051410;28;20484;-48
2023/06/02 10:22:02;;;;;;;7.90;5.70;;;31.30;34.40;;;;;;5050035;28;20427;-48
2023/06/02 10:24:46;;;;;;;7.30;6.50;;;31.30;33.00;;;;;;5051207;28;20446;-48
2023/06/02 10:27:25;;;;;;;7.10;6.50;;;31.40;33.00;;;;;;5051593;28;20430;-49
2023/06/02 10:29:55;;;;;;;7.63;6.23;;;31.50;33.00;;;;;;5051803;28;20446;-49
2023/06/02 10:32:27;;;;;;;5.63;5.23;;;31.50;33.50;;;;;;5051218;28;20439;-52
2023/06/02 10:34:54;;;;;;;7.43;5.67;;;31.60;33.00;;;;;;5051468;28;20443;-49
2023/06/02 10:37:22;;;;;;;6.50;6.00;;;31.70;32.80;;;;;;5051564;28;20428;-52
2023/06/02 10:39:50;;;;;;;5.60;4.97;;;31.80;32.40;;;;;;5051058;28;20486;-49
2023/06/02 10:42:16;;;;;;;6.00;5.50;;;31.70;32.70;;;;;;5051502;28;20431;-51
2023/06/02 10:44:42;;;;;;;5.93;5.30;;;31.60;32.90;;;;;;5050969;28;20519;-53
2023/06/02 10:47:20;;;;;;;6.13;5.20;;;31.60;32.90;;;;;;5050870;28;20895;-53
2023/06/02 10:49:58;;;;;;;5.97;5.47;;;31.80;33.10;;;;;;5050933;28;20848;-49
2023/06/02 10:52:25;;;;;;;6.30;5.70;;;32.00;32.60;;;;;;5051013;28;20439;-53
2023/06/02 10:55:27;;;;;;;6.17;5.67;;;32.10;31.90;;;;;;5036952;28;20436;-48
2023/06/02 10:58:01;;;;;;;6.13;5.57;;;32.30;32.40;;;;;;5031277;28;20451;-50
2023/06/02 11:00:35;;;;;;;6.80;6.20;;;32.40;31.50;;;;;;5031130;28;20488;-51
2023/06/02 11:03:17;;;;;;;7.20;6.60;;;32.50;31.10;;;;;;5037413;28;20430;-50
2023/06/02 11:05:43;;;;;;;6.07;5.57;;;32.60;31.70;;;;;;5050778;28;20462;-49
2023/06/02 11:08:15;;;;;;;10.53;5.30;;;32.70;31.00;;;;;;5051071;28;20518;-49
2023/06/02 11:11:10;;;;;;;6.83;5.30;;;32.60;32.00;;;;;;5033370;28;20447;-49
2023/06/02 11:13:56;;;;;;;5.90;5.10;;;32.70;32.10;;;;;;5016946;28;20440;-53
2023/06/02 11:16:22;;;;;;;5.93;5.40;;;32.80;30.90;;;;;;5031101;28;20438;-51
2023/06/02 11:18:47;;;;;;;5.77;5.13;;;32.80;30.50;;;;;;5031119;28;20570;-52
2023/06/02 11:21:19;;;;;;;6.67;5.07;;;32.80;30.20;;;;;;5034978;28;20219;-50
2023/06/02 11:23:45;;;;;;;6.23;5.63;;;32.90;30.90;;;;;;5034454;28;20201;-53
2023/06/02 11:26:16;;;;;;;5.93;5.30;;;33.10;31.00;;;;;;5034823;28;20447;-53
2023/06/02 11:28:42;;;;;;;5.90;5.47;;;33.20;30.00;;;;;;5034750;28;20245;-48
2023/06/02 11:31:11;;;;;;;5.97;5.47;;;33.30;30.00;;;;;;5034972;28;21088;-50
2023/06/02 11:33:48;;;;;;;5.87;5.27;;;33.10;29.80;;;;;;5034424;28;20202;-52
2023/06/02 11:36:16;;;;;;;5.73;5.23;;;33.10;30.00;;;;;;5034699;28;20439;-48
2023/06/02 11:38:43;;;;;;;6.20;5.70;;;33.20;30.30;;;;;;5034586;28;20500;-48
2023/06/02 11:41:15;;;;;;;6.07;5.50;;;33.10;29.70;;;;;;5032976;28;20442;-50
2023/06/02 11:43:42;;;;;;;5.50;5.00;;;32.90;29.80;;;;;;5034168;28;20510;-49
2023/06/02 11:46:18;;;;;;;6.23;5.00;;;32.90;29.90;;;;;;5034385;28;20420;-48
2023/06/02 11:48:44;;;;;;;7.63;5.57;;;32.90;29.70;;;;;;5034734;28;20428;-48
2023/06/02 11:51:12;;;;;;;5.80;5.30;;;32.80;31.40;;;;;;5048049;28;20419;-49
2023/06/02 11:53:44;;;;;;;5.50;4.73;;;33.00;30.20;;;;;;5038044;28;20894;-50
2023/06/02 11:56:10;;;;;;;6.60;5.07;;;33.20;30.80;;;;;;5049553;28;20935;-49
2023/06/02 11:58:44;;;;;;;5.83;4.80;;;33.00;30.40;;;;;;5034142;28;20460;-49
2023/06/02 12:01:15;;;;;;;5.50;4.70;;;33.20;30.00;;;;;;5034258;28;20424;-49
2023/06/02 12:03:58;;;;;;;6.20;5.20;;;33.30;29.50;;;;;;5033881;28;20490;-49
2023/06/02 12:06:24;;;;;;;5.00;4.50;;;33.30;29.00;;;;;;5043109;28;20454;-49
2023/06/02 12:08:50;;;;;;;5.40;5.00;;;33.30;29.20;;;;;;5050173;28;20439;-49
2023/06/02 12:11:23;;;;;;;7.13;5.67;;;33.30;29.50;;;;;;5034052;28;20789;-49
2023/06/02 12:14:02;;;;;;;5.03;4.63;;;33.50;29.60;;;;;;5033453;28;20209;-49
2023/06/02 12:16:29;;;;;;;4.93;4.50;;;33.30;28.20;;;;;;5034002;28;20519;-48
2023/06/02 12:19:12;;;;;;;5.20;4.80;;;33.30;28.60;;;;;;5033771;28;20472;-52
2023/06/02 12:21:41;;;;;;;5.97;4.77;;;33.50;28.60;;;;;;5033830;28;20470;-49
2023/06/02 12:24:07;;;;;;;5.00;4.60;;;33.60;29.10;;;;;;5033288;28;20471;-49
2023/06/02 12:26:44;;;;;;;7.87;4.40;;;33.80;28.80;;;;;;5033777;28;20794;-51
2023/06/02 12:29:10;;;;;;;5.40;4.90;;;33.90;28.20;;;;;;5033638;28;20803;-50
2023/06/02 12:31:36;;;;;;;6.23;4.57;;;33.80;27.00;;;;;;5033336;28;20804;-50
2023/06/02 12:34:02;;;;;;;6.47;4.90;;;33.60;27.50;;;;;;5031495;28;20463;-49
2023/06/02 12:36:28;;;;;;;4.43;4.03;;;33.50;27.00;;;;;;5033352;28;20427;-50
2023/06/02 12:38:54;;;;;;;4.93;4.43;;;33.40;27.90;;;;;;5034049;28;20225;-50
2023/06/02 12:41:20;;;;;;;5.20;4.33;;;33.30;26.90;;;;;;5033618;28;20197;-50
2023/06/02 12:43:45;;;;;;;5.43;4.93;;;33.40;26.70;;;;;;5032877;28;20714;-49
2023/06/02 12:46:11;;;;;;;4.27;3.93;;;33.40;27.90;;;;;;5033431;28;20439;-48
2023/06/02 12:48:38;;;;;;;4.10;3.80;;;33.30;28.20;;;;;;5033357;28;20200;-49